createdAt,value
2022-11-19T00:03:32.928Z,42.3
2022-11-19T00:09:54.456Z,42.28
2022-11-19T00:16:24.915Z,42.23
2022-11-19T00:22:51.950Z,42.24
2022-11-19T00:29:18.734Z,42.29
2022-11-19T00:35:41.530Z,42.11
2022-11-19T00:42:22.106Z,42.08
2022-11-19T00:48:54.144Z,41.88
2022-11-19T00:55:24.765Z,41.74
2022-11-19T01:01:51.869Z,41.68
2022-11-19T01:08:16.403Z,41.8
2022-11-19T01:14:40.000Z,41.74
2022-11-19T01:21:08.994Z,41.67
2022-11-19T01:27:31.910Z,41.71
2022-11-19T01:34:01.045Z,41.67
2022-11-19T01:40:26.944Z,41.58
2022-11-19T01:47:10.245Z,41.52
2022-11-19T01:53:57.006Z,41.5
2022-11-19T02:00:34.072Z,41.59
2022-11-19T02:07:01.045Z,41.52
2022-11-19T02:14:01.156Z,41.44
2022-11-19T02:21:08.413Z,41.56
2022-11-19T02:28:07.389Z,41.57
2022-11-19T02:35:07.568Z,41.59
2022-11-19T02:42:23.477Z,41.47
2022-11-19T02:49:31.073Z,41.63
2022-11-19T02:56:04.455Z,41.63
2022-11-19T03:02:44.124Z,41.64
2022-11-19T03:09:22.347Z,41.72
2022-11-19T03:16:10.441Z,41.72
2022-11-19T03:23:32.443Z,41.76
2022-11-19T03:30:31.797Z,41.8
2022-11-19T03:37:18.118Z,41.74
2022-11-19T03:44:01.132Z,41.75
2022-11-19T03:51:01.032Z,41.73
2022-11-19T03:57:45.630Z,41.72
2022-11-19T04:04:10.209Z,41.79
2022-11-19T04:10:42.022Z,41.71
2022-11-19T04:17:06.091Z,41.66
2022-11-19T04:23:32.912Z,41.65
2022-11-19T04:30:02.935Z,41.66
2022-11-19T04:36:33.145Z,41.71
2022-11-19T04:42:58.595Z,41.63
2022-11-19T04:49:28.885Z,41.69
2022-11-19T04:55:55.066Z,41.64
2022-11-19T05:02:18.097Z,41.53
2022-11-19T05:08:42.134Z,41.53
2022-11-19T05:15:15.570Z,40.45
2022-11-19T05:21:41.149Z,38.97
2022-11-19T05:28:14.856Z,39.09
2022-11-19T05:34:43.048Z,39.39
2022-11-19T05:41:04.060Z,40.37
2022-11-19T05:47:33.344Z,40.56
2022-11-19T05:53:59.237Z,40.52
2022-11-19T06:00:30.580Z,40.5
2022-11-19T06:06:58.228Z,40.6
2022-11-19T06:13:28.543Z,40.42
2022-11-19T06:20:02.616Z,40.82
2022-11-19T06:26:40.020Z,40.82
2022-11-19T06:33:08.592Z,40.03
2022-11-19T06:39:49.979Z,40.22
2022-11-19T06:46:28.485Z,39.96
2022-11-19T06:53:04.658Z,40.13
2022-11-19T06:59:37.380Z,40
2022-11-19T07:06:13.065Z,40.1
2022-11-19T07:12:42.691Z,39.94
2022-11-19T07:19:20.304Z,40.25
2022-11-19T07:25:58.791Z,40.29
2022-11-19T07:32:39.204Z,40.39
2022-11-19T07:39:19.771Z,40.44
2022-11-19T07:45:58.121Z,40.52
2022-11-19T07:52:42.439Z,40.63
2022-11-19T07:59:14.770Z,40.78
2022-11-19T08:05:55.145Z,40.74
2022-11-19T08:12:23.590Z,40.69
2022-11-19T08:19:02.459Z,40.72
2022-11-19T08:25:36.179Z,40.76
2022-11-19T08:32:12.561Z,40.72
2022-11-19T08:38:44.861Z,40.84
2022-11-19T08:45:24.019Z,40.88
2022-11-19T08:51:57.019Z,40.82
2022-11-19T08:58:26.420Z,40.68
2022-11-19T09:05:00.200Z,40.25
2022-11-19T09:11:29.243Z,40.07
2022-11-19T09:17:59.521Z,39.8
2022-11-19T09:24:30.323Z,39.78
2022-11-19T09:31:10.760Z,39.45
2022-11-19T09:37:49.250Z,39.53
2022-11-19T09:44:39.724Z,39.74
2022-11-19T09:51:46.252Z,39.54
2022-11-19T09:58:51.257Z,39.59
2022-11-19T10:05:53.507Z,39.42
2022-11-19T10:13:06.262Z,39.71
2022-11-19T10:20:19.216Z,40.09
2022-11-19T10:27:35.979Z,40.05
2022-11-19T10:34:38.494Z,39.79
2022-11-19T10:41:45.449Z,39.96
2022-11-19T10:48:48.658Z,39.89
2022-11-19T10:55:55.130Z,39.91
2022-11-19T11:02:40.607Z,40.01
2022-11-19T11:10:55.133Z,40.28
2022-11-19T11:17:42.369Z,40.71
2022-11-19T11:24:20.647Z,40.78
2022-11-19T11:31:24.659Z,40.97
2022-11-19T11:38:10.256Z,40.72
2022-11-19T11:44:58.181Z,40.86
2022-11-19T11:51:36.669Z,40.81
2022-11-19T11:58:23.263Z,40.81
2022-11-19T12:05:16.284Z,40.89
2022-11-19T12:12:13.558Z,40.82
2022-11-19T12:19:24.734Z,40.95
2022-11-19T12:26:25.290Z,40.72
2022-11-19T12:33:27.774Z,40.51
2022-11-19T12:40:34.199Z,40.02
2022-11-19T12:47:45.734Z,40.09
2022-11-19T12:54:39.866Z,40.04
2022-11-19T13:01:37.828Z,39.97
2022-11-19T13:08:45.487Z,40.1
2022-11-19T13:16:02.203Z,39.84
2022-11-19T13:22:53.454Z,40.01
2022-11-19T13:29:58.560Z,40.13
2022-11-19T13:37:13.360Z,40.28
2022-11-19T13:44:06.416Z,40.51
2022-11-19T13:51:13.221Z,40.54
2022-11-19T13:58:10.326Z,40.6
2022-11-19T14:05:03.385Z,40.53
2022-11-19T14:12:11.338Z,40.7
2022-11-19T14:19:09.092Z,40.65
2022-11-19T14:26:08.771Z,40.68
2022-11-19T14:33:03.379Z,40.73
2022-11-19T14:39:51.559Z,40.75
2022-11-19T14:46:53.567Z,40.73
2022-11-19T14:53:39.379Z,40.62
2022-11-19T15:00:43.723Z,40.74
2022-11-19T15:07:33.935Z,40.75
2022-11-19T15:14:25.763Z,40.86
2022-11-19T15:21:30.434Z,40.81
2022-11-19T15:28:34.478Z,40.78
2022-11-19T15:35:32.772Z,40.84
2022-11-19T15:42:21.237Z,40.88
2022-11-19T15:49:15.997Z,40.89
2022-11-19T15:55:58.924Z,40.82
2022-11-19T16:02:40.768Z,40.82
2022-11-19T16:09:24.801Z,40.93
2022-11-19T16:16:07.330Z,40.78
2022-11-19T16:22:46.701Z,40.76
2022-11-19T16:29:25.776Z,40.92
2022-11-19T16:36:06.724Z,40.97
2022-11-19T16:42:50.713Z,40.98
2022-11-19T16:49:51.237Z,40.93
2022-11-19T16:56:28.388Z,40.99
2022-11-19T17:03:20.324Z,40.91
2022-11-19T17:10:24.202Z,40.94
2022-11-19T17:17:10.728Z,41.08
2022-11-19T17:23:55.617Z,40.99
2022-11-19T17:30:47.398Z,40.94
2022-11-19T17:37:24.355Z,40.93
2022-11-19T17:44:05.462Z,41.03
2022-11-19T17:50:32.420Z,40.97
2022-11-19T17:57:04.499Z,40.96
2022-11-19T18:03:33.429Z,40.91
2022-11-19T18:10:02.701Z,40.96
2022-11-19T18:16:37.597Z,40.93
2022-11-19T18:23:05.443Z,40.92
2022-11-19T18:29:33.464Z,40.99
2022-11-19T18:36:09.370Z,40.84
2022-11-19T18:42:34.442Z,41.08
2022-11-19T18:48:58.858Z,40.97
2022-11-19T18:55:26.734Z,40.87
2022-11-19T19:01:48.863Z,40.82
2022-11-19T19:08:20.891Z,40.79
2022-11-19T19:14:41.499Z,40.79
2022-11-19T19:21:06.536Z,40.85
2022-11-19T19:27:39.999Z,40.93
2022-11-19T19:34:06.379Z,40.94
2022-11-19T19:40:33.291Z,40.93
2022-11-19T19:47:10.878Z,40.95
2022-11-19T19:53:41.520Z,40.98
2022-11-19T20:00:11.481Z,40.93
2022-11-19T20:06:40.422Z,40.83
2022-11-19T20:13:15.012Z,40.95
2022-11-19T20:19:38.533Z,40.86
2022-11-19T20:26:09.389Z,40.85
2022-11-19T20:32:44.087Z,40.85
2022-11-19T20:39:15.446Z,40.87
2022-11-19T20:45:38.589Z,40.89
2022-11-19T20:52:13.261Z,40.88
2022-11-19T20:58:36.497Z,40.88
2022-11-19T21:04:58.761Z,40.99
2022-11-19T21:11:33.283Z,40.85
2022-11-19T21:17:59.480Z,40.85
2022-11-19T21:24:20.945Z,40.83
2022-11-19T21:30:48.908Z,40.78
2022-11-19T21:37:21.839Z,40.84
2022-11-19T21:43:52.939Z,40.9
2022-11-19T21:50:31.392Z,40.88
2022-11-19T21:57:00.453Z,40.82
2022-11-19T22:03:30.744Z,40.82
2022-11-19T22:09:59.449Z,40.9
2022-11-19T22:16:25.404Z,40.83
2022-11-19T22:22:53.329Z,40.96
2022-11-19T22:29:16.932Z,40.88
2022-11-19T22:35:37.273Z,40.89
2022-11-19T22:42:01.684Z,40.89
2022-11-19T22:48:24.114Z,40.84
2022-11-19T22:55:01.791Z,40.92
2022-11-19T23:01:36.174Z,40.73
2022-11-19T23:08:00.535Z,40.84
2022-11-19T23:14:30.886Z,40.85
2022-11-19T23:20:57.584Z,40.85
2022-11-19T23:27:24.538Z,40.85
2022-11-19T23:33:59.177Z,40.86
2022-11-19T23:40:30.907Z,40.78
2022-11-19T23:46:57.575Z,40.82
2022-11-19T23:53:37.582Z,40.89
